Flight Track Log - Related Links

Times and Time Zones

All times are in EDT time to prevent confusion due to time zone crossing. See the CHQ4722 flight status page for this flight to view local times or setup timezone preferences in your user account.

Time Position Orientation Groundspeed Altitude Reporting Facility
EDT Latitude Longitude Course Direction KTS MPH feet Rate Location/Type
Tue 10:43:00 AM 40.8000 -73.8833 323° Northwest 161 185 1,500  Level New York TRACON
Tue 10:44:00 AM 40.8333 -73.9167 323° Northwest 212 244 4,200 2,950 Climbing New York TRACON
Tue 10:45:00 AM 40.8667 -73.9833 303° West 226 260 7,400 3,350 Climbing New York TRACON
Tue 10:46:00 AM 40.8667 -74.0667 270° West 225 259 10,900 2,650 Climbing New York TRACON
Tue 10:47:00 AM 40.8833 -74.1667 282° West 260 299 12,700 2,000 Climbing New York TRACON
Tue 10:48:00 AM 40.8833 -74.2667 270° West 284 327 14,900 2,031 Climbing New York TRACON
Tue 10:49:07 AM 40.8872 -74.3942 272° West 295 339 17,000 1,039 Climbing New York Center
Tue 10:50:07 AM 40.8906 -74.4878 273° West 308 354 17,100 50 Climbing New York Center
Tue 10:51:08 AM 40.8972 -74.6089 274° West 309 356 17,100  Level New York Center
Tue 10:52:07 AM 40.9000 -74.7106 272° West 309 356 17,100  Level New York Center
Tue 10:53:07 AM 40.9064 -74.8317 274° West 309 356 17,100 350 Level New York Center
Tue 10:54:07 AM 40.9092 -74.9333 272° West 315 362 17,800 1,200 Climbing New York Center
Tue 10:55:07 AM 40.9133 -75.0492 273° West 315 362 19,500 1,700 Climbing New York Center
Tue 10:56:07 AM 40.9153 -75.1672 271° West 315 362 21,200 1,850 Climbing New York Center
Tue 10:57:07 AM 40.8919 -75.2839 255° West 315 362 23,200 1,950 Climbing New York Center
Tue 10:58:07 AM 40.8667 -75.4000 254° West 326 375 25,100 1,700 Climbing New York Center
Tue 10:59:07 AM 40.8389 -75.5272 254° West 331 381 26,600 1,400 Climbing New York Center
Tue 11:00:07 AM 40.8111 -75.6431 252° West 337 388 27,900 700 Climbing New York Center
Tue 11:01:07 AM 40.7808 -75.7669 252° West 342 394 28,000 50 Climbing New York Center
Tue 11:02:07 AM 40.7483 -75.8961 252° West 355 409 28,000  Level New York Center
Tue 11:03:07 AM 40.7197 -76.0256 254° West 369 425 28,000  Level New York Center
Tue 11:04:07 AM 40.6867 -76.1569 252° West 375 432 28,000  Level New York Center
Tue 11:05:07 AM 40.6908 -76.2914 272° West 367 422 28,000  Level New York Center
Tue 11:06:08 AM 40.7139 -76.4219 283° West 362 417 28,000  Level New York Center
Tue 11:07:07 AM 40.7367 -76.5581 282° West 373 429 28,000  Level New York Center
Tue 11:08:07 AM 40.7592 -76.6889 283° West 373 429 28,000  Level New York Center
Tue 11:09:07 AM 40.7814 -76.8250 282° West 373 429 28,000  Level New York Center
Tue 11:10:07 AM 40.7997 -76.9583 280° West 379 436 28,000  Level New York Center
Tue 11:11:07 AM 40.8219 -77.0892 283° West 379 436 28,000  Level New York Center
Tue 11:12:07 AM 40.8439 -77.2231 282° West 379 436 28,000  Level New York Center
Tue 11:13:07 AM 40.8661 -77.3514 283° West 379 436 28,000  Level New York Center
Tue 11:14:07 AM 40.8856 -77.4878 281° West 379 436 28,000  Level New York Center
Tue 11:15:07 AM 40.9069 -77.6217 282° West 379 436 28,000  Level New York Center
Tue 11:17:33 AM 40.9539 -77.9381 281° West 371 427 28,000  Level Cleveland Center
Tue 11:18:34 AM 40.9744 -78.0717 282° West 372 428 28,000  Level Cleveland Center
Tue 11:19:36 AM 40.9942 -78.2050 281° West 372 428 28,000  Level Cleveland Center
Tue 11:20:37 AM 41.0169 -78.3533 282° West 372 428 28,000  Level Cleveland Center
Tue 11:21:39 AM 41.0358 -78.4811 281° West 356 410 28,000  Level Cleveland Center
Tue 11:22:40 AM 41.0522 -78.6003 280° West 337 388 28,000 -244 Level Cleveland Center
Tue 11:23:42 AM 41.0694 -78.7222 281° West 337 388 27,500 -829 Descending Cleveland Center
Tue 11:24:43 AM 41.0869 -78.8447 281° West 338 389 26,300 -732 Descending Cleveland Center
Tue 11:25:45 AM 41.1042 -78.9639 281° West 334 384 26,000 -146 Descending Cleveland Center
Tue 11:26:46 AM 41.1231 -79.1008 280° West 327 376 26,000  Level Cleveland Center
Tue 11:27:47 AM 41.1408 -79.2231 281° West 334 384 26,000  Level Cleveland Center
Tue 11:28:49 AM 41.1572 -79.3508 280° West 338 389 26,000  Level Cleveland Center
Tue 11:29:50 AM 41.1747 -79.4739 281° West 340 391 26,000 -537 Level Cleveland Center
Tue 11:30:52 AM 41.1914 -79.5950 280° West 338 389 24,900 -976 Descending Cleveland Center
Tue 11:31:53 AM 41.2061 -79.7097 280° West 332 382 24,000 -439 Descending Cleveland Center
Tue 11:32:55 AM 41.2228 -79.8289 281° West 329 379 24,000  Level Cleveland Center
Tue 11:33:56 AM 41.2422 -79.9781 280° West 339 390 24,000  Level Cleveland Center
Tue 11:34:58 AM 41.2556 -80.0856 279° West 348 400 24,000  Level Cleveland Center
Tue 11:35:59 AM 41.2758 -80.2422 280° West 356 410 24,000 -976 Level Cleveland Center
Tue 11:37:01 AM 41.2931 -80.3686 280° West 355 409 22,000 -2,098 Descending Cleveland Center
Tue 11:38:02 AM 41.3083 -80.4914 279° West 334 384 19,700 -2,341 Descending Cleveland Center
Tue 11:39:04 AM 41.3239 -80.6133 280° West 331 381 17,200 -2,341 Descending Cleveland Center
Tue 11:40:05 AM 41.3522 -80.7272 288° West 324 373 14,900 -2,471 Descending Cleveland Center
Tue 11:40:29 AM 41.3678 -80.7767 293° West 319 367 13,700 -2,361 Descending Cleveland Center
Tue 11:41:06 AM 41.3928 -80.8339 300° West 323 372 12,500 -2,051 Descending Cleveland Center
Tue 11:41:48 AM 41.4236 -80.9131 297° West 319 367 11,000 -1,839 Descending Cleveland Center
Tue 11:42:08 AM 41.4328 -80.9383 296° West 317 365 10,600 -1,000 Descending Cleveland Center
Tue 11:42:48 AM 41.4647 -81.0222 297° West 311 358 10,000 -590 Descending Cleveland Center
Tue 11:43:09 AM 41.4739 -81.0411 303° West 312 359 10,000  Level Cleveland Center
Tue 11:43:49 AM 41.5061 -81.1261 297° West 315 362 10,000  Level Cleveland Center
Tue 11:44:11 AM 41.5203 -81.1639 297° West 316 364 10,000  Level Cleveland Center
Tue 11:45:02 AM 41.5536 -81.2564 296° West 315 362 10,000  Level Cleveland Center
Tue 11:45:12 AM 41.5561 -81.2706 283° West 316 364 10,000 -667 Level Cleveland Center
Tue 11:45:56 AM 41.5528 -81.3372 266° West 245 282 9,400 -1,065 Descending Cleveland Center
Tue 11:46:14 AM 41.5494 -81.3614 260° West 251 289 8,900 -1,869 Descending Cleveland Center
Tue 11:46:57 AM 41.5392 -81.4217 257° West 229 264 7,500 -1,967 Descending Cleveland Center
Tue 11:47:15 AM 41.5358 -81.4486 261° West 242 278 6,900 -1,964 Descending Cleveland Center
Tue 11:47:52 AM 41.5278 -81.5036 259° West 243 280 5,700 -1,839 Descending Cleveland Center
Tue 11:48:17 AM 41.5211 -81.5389 256° West 243 280 5,000 -1,545 Descending Cleveland Center
Tue 11:48:58 AM 41.5103 -81.6042 258° West 242 278 4,000 -984 Descending Cleveland Center
Tue 11:49:18 AM 41.5078 -81.6217 259° West 239 275 4,000 -98 Level Cleveland Center
Tue 11:49:59 AM 41.4978 -81.6722 255° West 175 201 3,900 -197 Descending Cleveland Center
Tue 11:50:19 AM 41.4944 -81.6861 252° West 197 227 3,800 -689 Descending Cleveland Center
Tue 11:51:00 AM 41.4856 -81.7372 257° West 178 205 3,200 -774 Descending Cleveland Center
Tue 11:51:21 AM 41.4811 -81.7503 246° West 184 212 3,000 -1,100 Descending Cleveland Center
Tue 11:52:00 AM 41.4558 -81.7853 226° Southwest 171 197 2,100 -1,082 Descending Cleveland Center
Tue 11:52:22 AM 41.4497 -81.7956 232° Southwest 171 197 1,900 -787 Descending Cleveland Center
Tue 11:53:01 AM 41.4314 -81.8233 229° Southwest 133 153 1,300 -885 Descending Cleveland Center
Tue 11:53:23 AM 41.4225 -81.8392 233° Southwest 143 165 1,000 -357 Descending Cleveland Center
Tue 11:54:25 AM 41.4025 -81.8683 228° Southwest 136 157 800 -194 Descending Cleveland Center

Login

Don't have an account? Register now (free) for customized features, flight alerts, and more!